Stuttgart Airport

EDDS · 巴登-符腾堡, 德国

罗盘
风向 的 风向 的 风向 到 风向 200° Stuttgart Airport 7/25
风: 9 kt, 3 beaufort

6 kt

7 kt
改变
0 ft 1.000 2.000 3.000 4.000 5.000
Cloud Cloud Cloud Cloud
SCT 4.600
METAR EDDS 240820Z AUTO 20009KT 160V260 9999 SCT046 04/00 Q1002 NOSIG

METAR Stuttgart Airport - EDDS/STR

Stuttgart Airport是,德国中的中型机场。 该机场位于纬度48,68990和经度9,22196。 该机场有一条跑道: 7/25. 本场的ICAO机场代码为EDDS。 该机场的IATA代码为STR。 机场在Langen FIR中。

该航空气象观测是针对Stuttgart Airport在2024年2月24日 09:20, 当地时间进行的。

机场观察

风向为200°,速度为9 kt。 风向在160°和260°之间变化。

可见度为10 km 或者更多。

有疏云,零星散落的云朵在4.600 ft的高度。 没有观察到天花板。

温度为4 °C,阵风为-2 °C。 海平面上的气压为1002 hPa (QNH)。

白天

今天,太阳从07:15升起,在17:57降落。 这适用于Stuttgart Airport,世界夏令时可能有所不同。 当地时间与世界标准时间之间的时差为+1 小时。 当前,没有夏令时有效。

公司介绍

在这个机场,你可以找到飞行学校。 本场上唯一已知的公司是Flugbetrieb Aero Beta。

体会

到Vliegles.nl去找飞行课程,跳伞和其他飞行体验。 浏览页面,了解Stuttgart Airport附近所有可用的活动。 你也可以使用搜索功能来寻找你所在地附近的特定飞行课程、跳伞或其他飞行体验。

跑道

Id 标题 侧风 逆风 侧风 %
7/25 072°-252° 7 kt 6 kt 79 %

逆风成分最大的方向会被突出显示,并用于横风计算。 这并不一定意味着这个方向在使用。

乌云

4.600 ft SCT 疏云,零星散落的云朵

温度 & 天气

温度 4 °C
露点 0 °C
相对湿度 75%
风寒 -2 °C
Kp-index 0 (0-9)

白天

日出
07:15
中午
12:36
日落
17:57 (7:57)

小工具

你想在你的网站上有一个关于Stuttgart Airport的当前航空天气(METAR)的小部件吗?

显示HTML代码
?>